National Weather Service United States Department of Commerce
News Headlines

Northern Arizona Aviation

NWS Flagstaff Logo

 

The weather information provided on this page does not meet the FAA requirements for a pre-flight weather briefing. Call 1-800-WXBRIEF for a briefing from an FAA Flight Service Specialist prior to departure.

NWS Flagstaff Logo

Click on a plane icon to view aviation weather resources for airports in northern Arizona

 

Northern Arizona Terminal Aerodrome Forecasts (TAFs)

000
FTUS45 KFGZ 052320
TAFFLG
TAF
KFLG 052320Z 0600/0624 21009G18KT P6SM FEW110 SCT250
FM060300 VRB06KT P6SM SKC
FM061800 24013G22KT P6SM FEW070 FEW250=

575
FTUS45 KFGZ 052320
TAFPRC
TAF
KPRC 052320Z 0600/0624 23011G18KT P6SM VCTS FEW100CB FEW250
TEMPO 0600/0603 VRB15G25KT 6SM -TSRA BKN090CB
FM060300 19007KT P6SM SKC
FM061800 22010G18KT P6SM FEW080 SCT110=

000
FTUS45 KFGZ 052320
TAFSEZ
TAF
KSEZ 052320Z 0600/0624 22008G14KT P6SM FEW130 FEW250
TEMPO 0600/0603 VRB15G25KT 6SM -TSRA BKN090CB
FM060300 04012G20KT P6SM SKC
FM061400 12005KT P6SM SKC
FM061800 20009G16KT P6SM FEW080 SCT250=

573
FTUS45 KFGZ 052320
TAFGCN
TAF
KGCN 052320Z 0600/0624 24009G16KT P6SM FEW140 FEW250
FM060300 21007KT P6SM SKC
FM061700 23014G20KT P6SM SKC=

000
FTUS45 KFGZ 052320
TAFINW
TAF
KINW 052320Z 0600/0624 36009G16KT P6SM SKC
FM060400 22009KT P6SM FEW120 FEW250
FM061800 25010G17KT P6SM FEW100 SCT250=

000
FTUS45 KFGZ 060014 AAA
TAFPGA
TAF AMD
KPGA 060014Z 0600/0624 09008G14KT P6SM FEW150 FEW250
FM060200 14008KT P6SM FEW150 SCT250
FM061500 22007KT P6SM SKC
FM062200 25015G24KT P6SM SKC=
Quick Links

Aviation Discussion

Digital Aviation Forecasts

TAF Site Impacts Board

Radar

Satellite

CWSU - Albuquerque

Aviation Weather Center

AIRMETs

SIGMETs

Pilot Reports

GFS Lamp Explainer